Time;durP1;ratioP1;P1;durP2;ratioP2;P2;SDS_P1;SDS_P2;PMS_P1;PMS_P2;Temp;Humidity;BMP_temperature;BMP_pressure;BME280_temperature;BME280_humidity;BME280_pressure;Samples;Min_cycle;Max_cycle;Signal;HPM_P1;HPM_P2
2022/10/21 00:02:34;;;;;;;4.70;3.23;;;;;;;11.04;74.33;100566.78;31441921;28;20478;-73
2022/10/21 00:17:39;;;;;;;6.33;2.80;;;;;;;11.01;73.91;100581.19;31490291;28;20058;-73
2022/10/21 00:32:44;;;;;;;6.13;3.53;;;;;;;10.95;73.26;100593.69;31426799;28;20099;-73
2022/10/21 00:47:50;;;;;;;4.93;3.40;;;;;;;10.83;72.66;100607.81;31458650;28;20061;-73
2022/10/21 01:02:56;;;;;;;7.53;3.97;;;;;;;10.98;72.53;100628.19;31473562;28;20665;-73
2022/10/21 01:18:25;;;;;;;7.53;4.37;;;;;;;10.89;72.32;100644.19;31465217;28;20082;-74
2022/10/21 01:33:41;;;;;;;11.33;4.80;;;;;;;10.72;72.40;100675.06;31453410;28;20053;-74
2022/10/21 01:48:51;;;;;;;10.67;5.53;;;;;;;10.68;72.97;100704.94;31430239;28;20060;-73
2022/10/21 02:04:00;;;;;;;11.10;6.63;;;;;;;10.49;73.50;100730.75;31417421;28;20049;-73
2022/10/21 02:19:02;;;;;;;12.27;6.23;;;;;;;10.36;74.82;100754.13;31442692;28;20056;-74
2022/10/21 02:34:33;;;;;;;9.23;5.10;;;;;;;10.42;74.90;100774.22;31439197;28;20041;-72
2022/10/21 02:49:39;;;;;;;7.73;4.87;;;;;;;10.51;74.17;100776.50;31399468;28;20056;-73
2022/10/21 03:04:43;;;;;;;12.13;6.70;;;;;;;10.49;73.47;100776.88;31435533;28;20114;-72
2022/10/21 03:19:46;;;;;;;12.00;6.50;;;;;;;10.28;74.25;100798.78;31405458;28;20052;-73
2022/10/21 03:34:48;;;;;;;10.87;5.40;;;;;;;10.01;75.70;100811.31;31452647;28;20060;-73
2022/10/21 03:49:50;;;;;;;9.30;5.50;;;;;;;9.81;76.63;100825.38;31416504;28;20418;-73
2022/10/21 04:04:52;;;;;;;13.47;5.00;;;;;;;9.74;76.91;100849.81;31453403;28;20048;-73
2022/10/21 04:19:54;;;;;;;15.73;6.30;;;;;;;9.76;76.86;100865.69;31443386;28;20482;-74
2022/10/21 04:34:56;;;;;;;13.37;5.93;;;;;;;9.82;75.97;100875.75;31473845;28;20059;-73
2022/10/21 04:49:58;;;;;;;13.50;5.40;;;;;;;9.78;76.26;100899.38;31425036;28;20061;-74
2022/10/21 05:04:59;;;;;;;14.43;7.27;;;;;;;9.92;75.61;100933.81;31440178;28;20048;-74
2022/10/21 05:20:03;;;;;;;17.20;8.57;;;;;;;10.20;75.13;100957.34;31462733;28;20084;-73
2022/10/21 05:35:05;;;;;;;14.30;5.93;;;;;;;10.42;73.35;100969.66;31431996;28;20064;-73
2022/10/21 05:50:11;;;;;;;15.63;7.47;;;;;;;10.74;71.39;100979.56;31428178;28;20060;-73
2022/10/21 06:05:13;;;;;;;10.20;5.00;;;;;;;12.79;63.75;100995.69;31454679;28;20113;-74
2022/10/21 06:20:15;;;;;;;9.40;5.43;;;;;;;14.74;57.22;100996.06;31440541;28;20405;-74
2022/10/21 06:35:17;;;;;;;8.20;5.00;;;;;;;14.15;57.66;101005.09;31458400;28;20045;-73
2022/10/21 06:50:19;;;;;;;10.43;5.57;;;;;;;13.17;59.37;101034.50;31431285;28;20064;-74
2022/10/21 07:05:21;;;;;;;26.40;14.87;;;;;;;13.36;59.41;101046.66;31416397;28;20502;-73
2022/10/21 07:20:23;;;;;;;10.57;4.27;;;;;;;15.71;51.32;101052.75;31455617;28;20063;-73
2022/10/21 07:35:25;;;;;;;5.90;3.80;;;;;;;17.39;46.48;101050.97;31487474;28;20055;-75
2022/10/21 07:50:30;;;;;;;6.63;3.13;;;;;;;18.77;41.80;101063.03;31465862;28;20121;-74
2022/10/21 08:05:32;;;;;;;9.60;6.27;;;;;;;18.55;40.15;101076.81;31423702;28;20421;-73
2022/10/21 08:20:44;;;;;;;4.50;3.20;;;;;;;18.88;38.51;101099.19;31458071;28;20057;-73
2022/10/21 08:36:27;;;;;;;4.83;3.60;;;;;;;16.41;41.12;101110.34;31470259;28;20045;-75
2022/10/21 08:51:38;;;;;;;3.47;2.57;;;;;;;15.00;43.86;101131.78;31454562;28;20118;-73
2022/10/21 09:07:13;;;;;;;4.73;2.33;;;;;;;14.54;42.84;101128.03;31437996;28;20064;-73
2022/10/21 09:22:34;;;;;;;6.07;3.33;;;;;;;16.74;38.68;101121.22;31433557;28;20079;-74
2022/10/21 09:37:56;;;;;;;2.97;2.00;;;;;;;15.81;40.33;101120.94;31455867;28;20394;-73
2022/10/21 09:53:36;;;;;;;37.50;21.17;;;;;;;15.45;41.84;101114.75;31448389;28;20133;-74
2022/10/21 10:08:43;;;;;;;5.03;2.83;;;;;;;15.08;43.27;101126.94;31437360;28;20056;-74
2022/10/21 10:23:52;;;;;;;5.63;3.10;;;;;;;15.14;43.35;101119.75;31426889;28;20052;-73
2022/10/21 10:38:57;;;;;;;6.67;3.03;;;;;;;15.33;45.30;101127.91;31435794;28;20651;-74
2022/10/21 10:54:18;;;;;;;6.07;2.57;;;;;;;14.60;45.34;101139.25;31442643;28;20136;-74
2022/10/21 11:09:23;;;;;;;2.97;2.03;;;;;;;14.42;46.53;101131.38;31471120;28;20110;-73
2022/10/21 11:25:08;;;;;;;5.40;1.80;;;;;;;15.02;45.10;101121.19;31440478;28;20055;-73
2022/10/21 11:40:31;;;;;;;5.57;2.57;;;;;;;15.01;44.38;101127.84;31447031;28;20564;-74
2022/10/21 11:55:46;;;;;;;2.10;1.70;;;;;;;14.53;45.91;101148.34;31438837;28;20044;-75
2022/10/21 12:10:58;;;;;;;5.53;1.90;;;;;;;14.10;46.71;101155.75;31473413;28;20465;-74
2022/10/21 12:26:18;;;;;;;2.27;1.57;;;;;;;13.95;46.58;101153.25;31467725;28;20520;-74
2022/10/21 12:41:27;;;;;;;1.70;1.40;;;;;;;13.93;46.92;101155.66;31449295;28;20065;-74
2022/10/21 12:56:32;;;;;;;1.63;1.27;;;;;;;13.89;45.80;101159.63;31440364;28;20049;-73
2022/10/21 13:11:33;;;;;;;2.77;1.77;;;;;;;13.66;46.79;101165.84;31453671;28;20052;-73
2022/10/21 13:26:40;;;;;;;2.93;1.40;;;;;;;13.40;46.69;101150.25;31429580;28;20053;-74
2022/10/21 13:41:42;;;;;;;10.63;6.07;;;;;;;13.22;47.85;101162.19;31432203;28;20068;-74
2022/10/21 13:56:44;;;;;;;1.50;1.40;;;;;;;13.23;47.47;101152.03;31454912;28;20079;-73
2022/10/21 14:11:51;;;;;;;2.77;1.57;;;;;;;12.98;47.76;101164.03;31441366;28;20061;-72
2022/10/21 14:26:53;;;;;;;2.93;1.53;;;;;;;12.65;49.46;101151.19;31443274;28;20051;-74
2022/10/21 14:42:05;;;;;;;2.23;1.77;;;;;;;12.33;51.41;101164.38;31454693;28;20057;-73
2022/10/21 14:57:30;;;;;;;2.43;1.50;;;;;;;12.12;52.93;101159.91;31437459;28;20067;-74
2022/10/21 15:12:43;;;;;;;3.50;1.97;;;;;;;11.99;53.69;101183.34;31456704;28;20056;-73
2022/10/21 15:27:45;;;;;;;4.33;2.57;;;;;;;11.74;55.36;101192.44;31408194;28;20057;-74
2022/10/21 15:42:48;;;;;;;5.43;3.43;;;;;;;11.51;56.67;101201.16;31436061;28;20495;-73
2022/10/21 15:57:50;;;;;;;3.50;2.43;;;;;;;11.28;58.19;101239.72;31445299;28;20054;-74
2022/10/21 16:12:52;;;;;;;4.77;3.00;;;;;;;11.25;59.85;101243.22;31462329;28;20862;-73
2022/10/21 16:27:54;;;;;;;5.50;3.47;;;;;;;11.09;60.02;101245.63;31444607;28;20418;-73
2022/10/21 16:42:57;;;;;;;8.27;3.23;;;;;;;10.94;60.62;101234.00;31440957;28;20064;-75
2022/10/21 16:57:59;;;;;;;5.70;3.03;;;;;;;10.86;61.95;101261.59;31456352;28;20048;-74
2022/10/21 17:13:01;;;;;;;8.97;3.90;;;;;;;10.67;62.54;101262.00;31453424;28;20118;-74
2022/10/21 17:28:03;;;;;;;5.87;3.67;;;;;;;10.49;62.86;101257.38;31457012;28;20057;-74
2022/10/21 17:43:05;;;;;;;37.77;11.97;;;;;;;10.50;63.89;101271.75;31430048;28;20526;-75
2022/10/21 17:58:07;;;;;;;53.70;15.23;;;;;;;10.65;62.89;101284.13;31416771;28;20479;-74
2022/10/21 18:13:09;;;;;;;35.57;16.77;;;;;;;10.51;64.19;101290.34;31439443;28;20052;-74
2022/10/21 18:28:20;;;;;;;28.40;9.03;;;;;;;10.15;64.46;101302.34;31431725;28;20045;-74
2022/10/21 18:43:28;;;;;;;8.03;4.43;;;;;;;9.98;63.53;101308.50;31428815;28;20049;-73
2022/10/21 18:58:31;;;;;;;8.10;4.60;;;;;;;9.81;63.71;101321.66;31440414;28;20061;-74
2022/10/21 19:13:40;;;;;;;9.30;4.57;;;;;;;9.38;64.74;101347.03;31431517;28;20049;-73
2022/10/21 19:28:42;;;;;;;9.93;5.23;;;;;;;9.51;63.39;101340.13;31455919;28;20088;-76
2022/10/21 19:43:44;;;;;;;10.97;4.90;;;;;;;9.76;63.26;101351.06;31427795;28;20045;-75
2022/10/21 19:58:46;;;;;;;10.87;6.00;;;;;;;9.93;63.48;101345.69;31450645;28;20088;-74
2022/10/21 20:13:49;;;;;;;10.00;4.53;;;;;;;9.95;62.99;101341.81;31470221;28;20053;-73
2022/10/21 20:28:51;;;;;;;8.00;4.00;;;;;;;9.82;62.10;101344.91;31447800;28;20056;-72
2022/10/21 20:43:53;;;;;;;5.97;3.83;;;;;;;9.64;61.83;101338.63;31420617;28;20056;-73
2022/10/21 20:58:56;;;;;;;36.13;23.37;;;;;;;9.73;61.51;101330.91;31462917;28;20402;-73
2022/10/21 21:13:58;;;;;;;8.87;3.33;;;;;;;9.81;61.08;101337.13;31434900;28;20487;-73
2022/10/21 21:29:00;;;;;;;8.07;4.23;;;;;;;9.88;61.17;101348.03;31430752;28;20113;-73
2022/10/21 21:44:04;;;;;;;5.93;3.27;;;;;;;9.88;60.54;101346.09;31426248;28;20061;-72
2022/10/21 21:59:06;;;;;;;4.53;2.53;;;;;;;9.84;59.90;101342.56;31417584;28;20456;-72
2022/10/21 22:14:07;;;;;;;5.83;2.77;;;;;;;9.78;59.76;101349.53;31430679;28;20045;-72
2022/10/21 22:29:09;;;;;;;4.97;2.57;;;;;;;9.81;59.57;101326.28;31413949;28;20053;-73
2022/10/21 22:44:11;;;;;;;5.27;3.17;;;;;;;9.76;61.27;101330.16;31440707;28;20052;-73
2022/10/21 22:59:13;;;;;;;7.63;4.03;;;;;;;9.69;62.59;101324.69;31439959;28;20061;-73
2022/10/21 23:14:15;;;;;;;8.20;3.57;;;;;;;9.23;63.75;101319.84;31449986;28;20110;-72
2022/10/21 23:29:17;;;;;;;6.50;3.57;;;;;;;9.05;65.95;101324.41;31470550;28;20040;-73
2022/10/21 23:44:22;;;;;;;6.27;3.97;;;;;;;8.97;67.52;101317.41;31453245;28;20056;-73
2022/10/21 23:59:28;;;;;;;6.18;4.05;;;;;;;8.89;68.31;101310.38;31453678;28;20144;-74
